Stations météo

Publicité
Lus-La-Croix-Haute, France (7587): Température de l'air & dewpoint: 12.06.2019 15:00:00 - 18.06.2019 15:00:00 (CEST)Lus-La-Croix-Haute, France (7587): Vitesse du vent & gusts: 12.06.2019 15:00:00 - 18.06.2019 15:00:00 (CEST)Lus-La-Croix-Haute, France (7587): Direction du vent: 12.06.2019 15:00:00 - 18.06.2019 15:00:00 (CEST)Lus-La-Croix-Haute, France (7587): Quantités de précipitations: 12.06.2019 15:00:00 - 18.06.2019 15:00:00 (CEST)
Date & Time tt [°C] td [°C] ff [km/h] ff [knt] fx [km/h] fx [knt] dd rr [mm]
18.06.2019 15:00:00 23,3 10,4 15 8 34 18 S 0,0
18.06.2019 14:00:00 24,3 10,6 15 8 35 19 SSW -
18.06.2019 13:00:00 23,5 9,8 13 7 29 16 S 0,0
18.06.2019 12:00:00 21,5 12,9 13 7 28 15 SSW 0,0
18.06.2019 11:00:00 21,3 12,4 15 8 28 15 SSW 0,0
18.06.2019 10:00:00 16,9 14,5 2 1 8 4 SW 0,0
18.06.2019 09:00:00 13,0 12,7 2 1 5 3 WSW 0,0
18.06.2019 08:00:00 10,1 9,9 0 0 5 3 N -
18.06.2019 07:00:00 8,5 8,2 0 0 4 2 N 0,0
18.06.2019 06:00:00 8,6 8,2 0 0 5 3 N 0,0
18.06.2019 05:00:00 9,1 8,6 0 0 4 2 N 0,0
18.06.2019 04:00:00 9,9 9,4 0 0 4 2 N 0,0
18.06.2019 03:00:00 10,6 10,1 2 1 5 3 NNE 0,0
18.06.2019 02:00:00 11,1 10,6 2 1 8 4 N -
18.06.2019 01:00:00 11,9 11,3 0 0 4 2 N 0,0
18.06.2019 00:00:00 12,6 12,0 2 1 9 5 NNE 0,0
17.06.2019 23:00:00 13,7 12,9 4 2 11 6 NNW 0,0
17.06.2019 22:00:00 14,5 13,7 4 2 11 6 ESE 0,0
17.06.2019 21:00:00 14,8 13,8 4 2 13 7 E 0,0
17.06.2019 20:00:00 15,0 14,0 4 2 15 8 E -
17.06.2019 19:00:00 15,8 13,5 8 4 28 15 WNW 1,0
17.06.2019 18:00:00 21,1 12,2 9 5 26 14 NNW 0,0
17.06.2019 17:00:00 26,1 12,2 11 6 28 15 W 0,0
17.06.2019 16:00:00 26,0 11,0 11 6 31 17 SSW 0,0
17.06.2019 15:00:00 25,4 7,5 9 5 28 15 SW 0,0
17.06.2019 14:00:00 24,5 8,8 13 7 41 22 S -
17.06.2019 13:00:00 23,5 10,9 16 9 48 26 SW 0,0
17.06.2019 12:00:00 22,9 11,3 13 7 37 20 SW 0,0
17.06.2019 11:00:00 21,5 11,5 8 4 15 8 S 0,0
17.06.2019 10:00:00 18,6 12,3 4 2 9 5 SE 0,0
17.06.2019 09:00:00 16,1 10,8 2 1 8 4 E 0,0
17.06.2019 08:00:00 11,0 10,8 2 1 5 3 ENE -
17.06.2019 07:00:00 8,6 7,7 2 1 8 4 NNW 0,0
17.06.2019 06:00:00 9,2 8,4 4 2 9 5 NE 0,0
17.06.2019 05:00:00 9,4 8,6 2 1 9 5 E 0,0
17.06.2019 04:00:00 10,1 8,7 4 2 9 5 NNE 0,0
17.06.2019 03:00:00 10,2 9,0 4 2 8 4 ENE 0,0
17.06.2019 02:00:00 11,0 9,3 2 1 8 4 ENE -
17.06.2019 01:00:00 11,6 9,3 4 2 13 7 ENE 0,0
17.06.2019 00:00:00 13,2 10,0 5 3 15 8 N 0,0
16.06.2019 23:00:00 14,0 10,0 8 4 13 7 NNE 0,0
16.06.2019 22:00:00 14,7 10,3 5 3 15 8 N 0,0
16.06.2019 21:00:00 16,5 10,3 4 2 34 18 NNW 0,0
16.06.2019 20:00:00 18,3 11,1 11 6 29 16 NNW -
16.06.2019 19:00:00 19,0 11,1 13 7 29 16 NNW 0,0
16.06.2019 18:00:00 17,3 10,2 13 7 42 23 NNW 0,0
16.06.2019 17:00:00 19,1 11,1 15 8 41 22 NNW 0,0
16.06.2019 16:00:00 18,6 9,9 15 8 50 27 NNW 0,0
16.06.2019 15:00:00 18,6 10,7 15 8 41 22 NNW 0,0
16.06.2019 14:00:00 16,8 10,2 15 8 39 21 NNW -
16.06.2019 13:00:00 16,1 9,3 9 5 35 19 N 0,0
16.06.2019 12:00:00 14,5 8,9 15 8 37 20 NNW 0,0
16.06.2019 11:00:00 13,1 8,2 15 8 41 22 N 0,0
16.06.2019 10:00:00 11,9 8,0 8 4 22 12 NE 0,0
16.06.2019 09:00:00 11,2 8,1 8 4 35 19 NNE 0,0
16.06.2019 08:00:00 10,2 8,0 11 6 34 18 NNW -
16.06.2019 07:00:00 10,1 7,9 15 8 31 17 NNW 0,0
16.06.2019 06:00:00 10,1 8,0 13 7 31 17 NNW 0,0
16.06.2019 05:00:00 10,2 7,8 16 9 37 20 NW 0,0
16.06.2019 04:00:00 10,0 7,6 11 6 29 16 NW 0,0
16.06.2019 03:00:00 9,5 7,6 8 4 29 16 N 0,0
16.06.2019 02:00:00 9,4 7,8 8 4 28 15 NNW -
16.06.2019 01:00:00 9,6 8,4 2 1 22 12 E 0,0
16.06.2019 00:00:00 9,3 8,5 8 4 24 13 N 0,0
15.06.2019 23:00:00 9,5 8,6 8 4 18 10 N 0,0
15.06.2019 22:00:00 9,9 8,7 4 2 9 5 NE 0,0
15.06.2019 21:00:00 11,6 9,2 4 2 28 15 N 0,0
15.06.2019 20:00:00 12,6 10,1 13 7 34 18 WNW -
15.06.2019 19:00:00 11,6 10,5 11 6 42 23 NW 0,8
15.06.2019 18:00:00 13,1 10,1 16 9 54 29 NW 0,0
15.06.2019 17:00:00 16,7 11,6 16 9 48 26 NW 0,0
15.06.2019 16:00:00 19,2 15,7 11 6 55 30 SSE 2,0
15.06.2019 15:00:00 21,6 8,8 13 7 46 25 S 0,0
15.06.2019 14:00:00 23,6 10,6 21 11 52 28 SSE -
15.06.2019 13:00:00 21,6 12,2 8 4 31 17 S 0,0
15.06.2019 12:00:00 20,7 12,7 16 9 34 18 SSW 0,0
15.06.2019 11:00:00 19,7 12,0 13 7 26 14 SSW 0,0
15.06.2019 10:00:00 19,4 12,6 9 5 21 11 SSW 0,0
15.06.2019 09:00:00 18,3 12,5 8 4 21 11 SSW 0,0
15.06.2019 08:00:00 16,0 12,4 8 4 21 11 SSW -
15.06.2019 07:00:00 14,5 11,8 4 2 18 10 SSE 0,0
15.06.2019 06:00:00 13,4 11,1 5 3 13 7 S 0,0
15.06.2019 05:00:00 14,2 11,5 2 1 9 5 SW 0,0
15.06.2019 04:00:00 14,3 11,8 4 2 8 4 ENE 0,0
15.06.2019 03:00:00 14,7 11,5 0 0 13 7 N 0,0
15.06.2019 02:00:00 14,7 10,9 5 3 11 6 NE -
15.06.2019 01:00:00 15,1 10,5 4 2 16 9 S 0,0
15.06.2019 00:00:00 17,3 9,2 4 2 34 18 S 0,0
14.06.2019 23:00:00 19,6 8,3 18 10 41 22 SSW 0,0
14.06.2019 22:00:00 21,2 7,1 18 10 39 21 S 0,0
14.06.2019 21:00:00 22,5 7,1 18 10 44 24 S 0,0
14.06.2019 20:00:00 23,4 7,1 26 14 50 27 S -
14.06.2019 19:00:00 21,9 8,0 11 6 28 15 S 0,0
14.06.2019 18:00:00 19,9 10,3 5 3 26 14 WNW 0,0
14.06.2019 17:00:00 21,0 12,4 5 3 34 18 S 0,0
14.06.2019 16:00:00 19,7 11,2 11 6 35 19 WNW 0,0
14.06.2019 15:00:00 20,6 11,2 15 8 39 21 NW 0,0
14.06.2019 14:00:00 19,4 10,1 18 10 39 21 WNW -
14.06.2019 13:00:00 19,3 11,1 13 7 37 20 NW 0,0
14.06.2019 12:00:00 17,8 8,9 16 9 37 20 NW 0,0
14.06.2019 11:00:00 15,5 8,9 11 6 28 15 NW 0,2
14.06.2019 10:00:00 15,6 9,3 4 2 31 17 WNW 0,0
14.06.2019 09:00:00 17,5 9,4 8 4 11 6 NNW 0,0
14.06.2019 08:00:00 18,8 7,2 4 2 34 18 ESE -
14.06.2019 07:00:00 20,0 6,0 18 10 57 31 SSW 0,0
14.06.2019 06:00:00 19,6 4,9 22 12 48 26 S 0,0
14.06.2019 05:00:00 17,8 4,7 18 10 50 27 S 0,0
14.06.2019 04:00:00 17,1 4,1 13 7 37 20 S 0,0
14.06.2019 03:00:00 16,9 3,6 8 4 35 19 SW 0,0
14.06.2019 02:00:00 15,3 4,0 8 4 26 14 N -
14.06.2019 01:00:00 15,9 4,0 4 2 18 10 SE 0,0
14.06.2019 00:00:00 15,2 4,3 5 3 21 11 NNW 0,0
13.06.2019 23:00:00 16,2 3,6 4 2 31 17 N 0,0
13.06.2019 22:00:00 16,3 3,7 11 6 24 13 SSE 0,0
13.06.2019 21:00:00 16,7 2,7 11 6 31 17 SSE 0,0
13.06.2019 20:00:00 18,3 0,4 15 8 28 15 S -
13.06.2019 19:00:00 19,8 1,7 13 7 37 20 S 0,0
13.06.2019 18:00:00 20,5 -1,4 22 12 42 23 SE 0,0
13.06.2019 17:00:00 21,6 0,1 15 8 42 23 S 0,0
13.06.2019 16:00:00 21,4 -1,2 16 9 44 24 S 0,0
13.06.2019 15:00:00 21,0 -2,2 15 8 41 22 SSW 0,0
13.06.2019 14:00:00 19,9 -0,7 18 10 46 25 SSW -
13.06.2019 13:00:00 19,2 -0,8 18 10 37 20 SSW 0,0
13.06.2019 12:00:00 18,1 -1,7 15 8 34 18 SSW 0,0
13.06.2019 11:00:00 17,0 2,2 13 7 24 13 S 0,0
13.06.2019 10:00:00 12,9 5,3 4 2 8 4 NNW 0,0
13.06.2019 09:00:00 8,3 6,3 4 2 8 4 S 0,0
13.06.2019 08:00:00 5,1 5,1 0 0 4 2 N -
13.06.2019 07:00:00 2,3 2,0 2 1 8 4 ESE 0,0
13.06.2019 06:00:00 2,3 1,9 2 1 4 2 SE 0,0
13.06.2019 05:00:00 2,6 1,9 0 0 4 2 N 0,0
13.06.2019 04:00:00 3,4 2,8 0 0 5 3 N 0,0
13.06.2019 03:00:00 3,8 3,1 2 1 5 3 NE 0,0
13.06.2019 02:00:00 4,7 3,8 2 1 5 3 E -
13.06.2019 01:00:00 5,7 4,7 0 0 4 2 N 0,0
13.06.2019 00:00:00 6,5 4,7 0 0 4 2 N 0,0
12.06.2019 23:00:00 7,7 5,2 2 1 5 3 SSE 0,0
12.06.2019 22:00:00 9,8 5,2 2 1 9 5 E 0,0
12.06.2019 21:00:00 14,1 5,4 2 1 22 12 NNW 0,0
12.06.2019 20:00:00 16,8 6,3 9 5 24 13 NW -
12.06.2019 19:00:00 18,5 7,6 5 3 26 14 NNW 0,0
12.06.2019 18:00:00 17,5 6,1 9 5 28 15 WSW 0,0
12.06.2019 17:00:00 19,2 3,8 16 9 35 19 S 0,0
12.06.2019 16:00:00 18,7 0,3 15 8 34 18 S 0,0
12.06.2019 15:00:00 18,5 3,5 13 7 35 19 SSW 0,0

tt = Température de l'air
td = dewpoint
ff = Vitesse du vent
fx = gusts
dd = Direction du vent
rr = Quantités de précipitations

stations d'obs. à proximité